createdAt,value
2017-11-19T00:00:33.858Z,0
2017-11-19T00:01:46.871Z,0
2017-11-19T00:02:59.848Z,0
2017-11-19T00:04:12.366Z,0
2017-11-19T00:05:25.396Z,0
2017-11-19T00:06:37.479Z,0
2017-11-19T00:07:50.475Z,0
2017-11-19T00:09:02.538Z,0
2017-11-19T00:10:15.068Z,0
2017-11-19T00:11:28.056Z,0
2017-11-19T00:12:41.063Z,0
2017-11-19T00:13:54.045Z,0
2017-11-19T00:15:07.068Z,0
2017-11-19T00:16:20.053Z,0
2017-11-19T00:17:33.055Z,0
2017-11-19T00:18:46.083Z,0
2017-11-19T00:19:59.130Z,0
2017-11-19T00:21:12.118Z,0
2017-11-19T00:22:25.114Z,0
2017-11-19T00:23:36.715Z,0
2017-11-19T00:24:49.236Z,0
2017-11-19T00:26:01.724Z,0
2017-11-19T00:27:14.306Z,0
2017-11-19T00:28:27.272Z,0
2017-11-19T00:29:40.281Z,0
2017-11-19T00:30:53.292Z,0
2017-11-19T00:32:05.845Z,0
2017-11-19T00:33:18.408Z,0
2017-11-19T00:34:30.474Z,0
2017-11-19T00:35:43.502Z,0
2017-11-19T00:36:56.522Z,0
2017-11-19T00:38:09.536Z,0
2017-11-19T00:39:22.585Z,0
2017-11-19T00:40:35.635Z,0
2017-11-19T00:41:48.671Z,0
2017-11-19T00:43:01.688Z,0
2017-11-19T00:44:14.735Z,0
2017-11-19T00:45:27.737Z,0
2017-11-19T00:46:39.774Z,0
2017-11-19T00:47:52.772Z,0
2017-11-19T00:49:05.818Z,0
2017-11-19T00:50:18.863Z,0
2017-11-19T00:51:31.851Z,0
2017-11-19T00:52:44.866Z,0
2017-11-19T00:53:58.091Z,0
2017-11-19T00:55:11.138Z,0
2017-11-19T00:56:24.122Z,0
2017-11-19T00:57:37.065Z,0
2017-11-19T00:58:50.085Z,0
2017-11-19T01:00:03.103Z,0
2017-11-19T01:01:16.090Z,0
2017-11-19T01:02:28.167Z,0
2017-11-19T01:03:40.229Z,0
2017-11-19T01:04:53.225Z,0
2017-11-19T01:06:05.766Z,0
2017-11-19T01:07:18.279Z,0
2017-11-19T01:08:30.790Z,0
2017-11-19T01:09:43.536Z,0
2017-11-19T01:10:56.554Z,0
2017-11-19T01:12:09.531Z,0
2017-11-19T01:13:21.608Z,0
2017-11-19T01:14:34.157Z,0
2017-11-19T01:15:46.222Z,0
2017-11-19T01:16:59.220Z,0
2017-11-19T01:18:11.752Z,0
2017-11-19T01:19:24.789Z,0
2017-11-19T01:20:37.831Z,0
2017-11-19T01:21:50.845Z,0
2017-11-19T01:23:03.604Z,0
2017-11-19T01:24:16.653Z,0
2017-11-19T01:25:29.662Z,0
2017-11-19T01:26:42.646Z,0
2017-11-19T01:27:55.673Z,0
2017-11-19T01:29:08.678Z,0
2017-11-19T01:30:21.694Z,0
2017-11-19T01:31:34.696Z,0
2017-11-19T01:32:47.720Z,0
2017-11-19T01:34:00.745Z,0
2017-11-19T01:35:13.716Z,0
2017-11-19T01:36:26.735Z,0
2017-11-19T01:37:39.757Z,0
2017-11-19T01:38:52.757Z,0
2017-11-19T01:40:05.711Z,0
2017-11-19T01:41:18.443Z,0
2017-11-19T01:42:31.430Z,0
2017-11-19T01:43:43.951Z,0
2017-11-19T01:44:56.444Z,0
2017-11-19T01:46:08.968Z,0
2017-11-19T01:47:21.999Z,0
2017-11-19T01:48:35.025Z,0
2017-11-19T01:49:48.044Z,0
2017-11-19T01:51:01.059Z,0
2017-11-19T01:52:13.601Z,0
2017-11-19T01:53:26.623Z,0
2017-11-19T01:54:39.640Z,0
2017-11-19T01:55:52.623Z,0
2017-11-19T01:57:05.629Z,0
2017-11-19T01:58:18.601Z,0
2017-11-19T01:59:31.584Z,0
2017-11-19T02:00:45.405Z,0
2017-11-19T02:01:58.442Z,0
2017-11-19T02:03:11.457Z,0
2017-11-19T02:04:23.996Z,0
2017-11-19T02:05:36.545Z,0
2017-11-19T02:06:49.534Z,0
2017-11-19T02:08:02.521Z,0
2017-11-19T02:09:15.536Z,0
2017-11-19T02:10:28.537Z,0
2017-11-19T02:11:41.603Z,0
2017-11-19T02:12:54.824Z,0
2017-11-19T02:14:07.809Z,0
2017-11-19T02:15:20.814Z,0
2017-11-19T02:16:33.838Z,0
2017-11-19T02:17:46.380Z,0
2017-11-19T02:18:59.420Z,0
2017-11-19T02:20:11.958Z,0
2017-11-19T02:21:24.927Z,0
2017-11-19T02:22:37.443Z,0
2017-11-19T02:23:50.438Z,0
2017-11-19T02:25:02.504Z,0
2017-11-19T02:26:15.465Z,0
2017-11-19T02:27:28.457Z,0
2017-11-19T02:28:41.439Z,0
2017-11-19T02:29:54.461Z,0
2017-11-19T02:31:07.026Z,0
2017-11-19T02:32:20.044Z,0
2017-11-19T02:33:33.047Z,0
2017-11-19T02:34:46.054Z,0
2017-11-19T02:35:59.028Z,0
2017-11-19T02:37:12.101Z,0
2017-11-19T02:38:24.635Z,0
2017-11-19T02:39:37.652Z,0
2017-11-19T02:40:50.623Z,0
2017-11-19T02:42:03.650Z,0
2017-11-19T02:43:16.634Z,0
2017-11-19T02:44:29.665Z,0
2017-11-19T02:45:42.680Z,0
2017-11-19T02:46:55.713Z,0
2017-11-19T02:48:08.265Z,0
2017-11-19T02:49:21.289Z,0
2017-11-19T02:50:34.316Z,0
2017-11-19T02:51:47.298Z,0
2017-11-19T02:53:00.302Z,0
2017-11-19T02:54:12.860Z,0
2017-11-19T02:55:25.850Z,0
2017-11-19T02:56:38.893Z,0
2017-11-19T02:57:51.902Z,0
2017-11-19T02:59:05.120Z,0
2017-11-19T03:00:17.691Z,0
2017-11-19T03:01:30.249Z,0
2017-11-19T03:02:42.774Z,0
2017-11-19T03:03:55.776Z,0
2017-11-19T03:05:08.784Z,0
2017-11-19T03:06:21.764Z,0
2017-11-19T03:07:34.738Z,0
2017-11-19T03:08:47.717Z,0
2017-11-19T03:10:00.707Z,0
2017-11-19T03:11:13.709Z,0
2017-11-19T03:12:26.725Z,0
2017-11-19T03:13:39.755Z,0
2017-11-19T03:14:52.963Z,0
2017-11-19T03:16:05.957Z,0
2017-11-19T03:17:18.961Z,0
2017-11-19T03:18:31.980Z,0
2017-11-19T03:19:45.004Z,0
2017-11-19T03:20:57.064Z,0
2017-11-19T03:22:10.074Z,0
2017-11-19T03:23:22.595Z,0
2017-11-19T03:24:35.167Z,0
2017-11-19T03:25:48.162Z,0
2017-11-19T03:27:00.657Z,0
2017-11-19T03:28:12.694Z,0
2017-11-19T03:29:25.699Z,0
2017-11-19T03:30:38.767Z,0
2017-11-19T03:31:52.010Z,0
2017-11-19T03:33:04.564Z,0
2017-11-19T03:34:17.122Z,0
2017-11-19T03:35:30.139Z,0
2017-11-19T03:36:43.143Z,0
2017-11-19T03:37:56.152Z,0
2017-11-19T03:39:09.116Z,0
2017-11-19T03:40:21.665Z,0
2017-11-19T03:41:34.649Z,0
2017-11-19T03:42:47.660Z,0
2017-11-19T03:44:00.659Z,0
2017-11-19T03:45:13.677Z,0
2017-11-19T03:46:26.227Z,0
2017-11-19T03:47:39.234Z,0
2017-11-19T03:48:52.263Z,0
2017-11-19T03:50:04.770Z,0
2017-11-19T03:51:17.809Z,0
2017-11-19T03:52:30.390Z,0
2017-11-19T03:53:43.794Z,0
2017-11-19T03:54:56.751Z,0
2017-11-19T03:56:08.313Z,0
2017-11-19T03:57:21.319Z,0
2017-11-19T03:58:33.860Z,0
2017-11-19T03:59:46.866Z,0
2017-11-19T04:00:59.885Z,0
2017-11-19T04:02:12.398Z,0
2017-11-19T04:03:24.969Z,0
2017-11-19T04:04:38.005Z,0
2017-11-19T04:05:50.990Z,0
2017-11-19T04:07:04.009Z,0
2017-11-19T04:08:17.033Z,0
2017-11-19T04:09:30.022Z,0
2017-11-19T04:10:42.999Z,0
2017-11-19T04:11:56.059Z,0
2017-11-19T04:13:09.069Z,0
2017-11-19T04:14:22.164Z,0
2017-11-19T04:15:34.688Z,0
2017-11-19T04:16:47.206Z,0
2017-11-19T04:18:00.249Z,0
2017-11-19T04:19:13.467Z,0
2017-11-19T04:20:26.681Z,0
2017-11-19T04:21:39.663Z,0
2017-11-19T04:22:52.707Z,0
2017-11-19T04:24:05.707Z,0
2017-11-19T04:25:18.258Z,0
2017-11-19T04:26:31.240Z,0
2017-11-19T04:27:44.246Z,0
2017-11-19T04:28:56.798Z,0
2017-11-19T04:30:09.366Z,0
2017-11-19T04:31:22.369Z,0
2017-11-19T04:32:35.365Z,0
2017-11-19T04:33:48.435Z,0
2017-11-19T04:35:01.003Z,0
2017-11-19T04:36:13.975Z,0
2017-11-19T04:37:26.972Z,0
2017-11-19T04:38:39.525Z,0
2017-11-19T04:39:52.509Z,0
2017-11-19T04:41:05.083Z,0
2017-11-19T04:42:18.085Z,0
2017-11-19T04:43:31.052Z,0
2017-11-19T04:44:44.084Z,0
2017-11-19T04:45:56.685Z,0
2017-11-19T04:47:09.235Z,0
2017-11-19T04:48:21.759Z,0
2017-11-19T04:49:34.797Z,0
2017-11-19T04:50:47.792Z,0
2017-11-19T04:52:00.359Z,0
2017-11-19T04:53:13.353Z,0
2017-11-19T04:54:25.873Z,0
2017-11-19T04:55:38.921Z,0
2017-11-19T04:56:51.856Z,0
2017-11-19T04:58:04.369Z,0
2017-11-19T04:59:16.389Z,0
2017-11-19T05:00:28.901Z,0
2017-11-19T05:01:41.900Z,0
2017-11-19T05:02:54.901Z,0
2017-11-19T05:04:07.921Z,0
2017-11-19T05:05:21.113Z,0
2017-11-19T05:06:34.044Z,0
2017-11-19T05:07:47.070Z,0
2017-11-19T05:09:00.044Z,0
2017-11-19T05:10:13.066Z,0
2017-11-19T05:11:25.583Z,0
2017-11-19T05:12:38.125Z,0
2017-11-19T05:13:50.693Z,0
2017-11-19T05:15:03.217Z,0
2017-11-19T05:16:15.819Z,0
2017-11-19T05:17:28.798Z,0
2017-11-19T05:18:41.790Z,0
2017-11-19T05:19:54.781Z,0
2017-11-19T05:21:06.846Z,0
2017-11-19T05:22:19.389Z,0
2017-11-19T05:23:32.399Z,0
2017-11-19T05:24:45.376Z,0
2017-11-19T05:25:58.386Z,0
2017-11-19T05:27:11.395Z,0
2017-11-19T05:28:24.420Z,0
2017-11-19T05:29:36.982Z,0
2017-11-19T05:30:49.948Z,0
2017-11-19T05:32:02.460Z,0
2017-11-19T05:33:15.487Z,0
2017-11-19T05:34:28.514Z,0
2017-11-19T05:35:40.550Z,0
2017-11-19T05:36:53.535Z,0
2017-11-19T05:38:06.555Z,0
2017-11-19T05:39:19.593Z,0
2017-11-19T05:40:32.614Z,0
2017-11-19T05:41:45.620Z,0
2017-11-19T05:42:58.658Z,0
2017-11-19T05:44:11.650Z,0
2017-11-19T05:45:24.693Z,0
2017-11-19T05:46:37.688Z,0
2017-11-19T05:47:50.668Z,0
2017-11-19T05:49:03.681Z,0
2017-11-19T05:50:16.737Z,0
2017-11-19T05:51:29.768Z,0
2017-11-19T05:52:42.748Z,0
2017-11-19T05:53:55.722Z,0
2017-11-19T05:55:08.753Z,0
2017-11-19T05:56:21.277Z,0
2017-11-19T05:57:34.313Z,0
2017-11-19T05:58:46.839Z,0
2017-11-19T05:59:59.846Z,0
2017-11-19T06:01:12.853Z,0
2017-11-19T06:02:25.371Z,0
2017-11-19T06:03:38.339Z,0
2017-11-19T06:04:51.330Z,0
2017-11-19T06:06:04.351Z,0
2017-11-19T06:07:17.368Z,0
2017-11-19T06:08:30.405Z,0
2017-11-19T06:09:43.370Z,0
2017-11-19T06:10:56.398Z,0
2017-11-19T06:12:09.404Z,0
2017-11-19T06:13:22.439Z,0
2017-11-19T06:14:35.461Z,0
2017-11-19T06:15:48.497Z,0
2017-11-19T06:17:01.063Z,0
2017-11-19T06:18:14.130Z,0
2017-11-19T06:19:27.260Z,0
2017-11-19T06:20:40.262Z,0
2017-11-19T06:21:53.266Z,0
2017-11-19T06:23:05.317Z,0
2017-11-19T06:24:17.818Z,0
2017-11-19T06:25:30.368Z,0
2017-11-19T06:26:43.347Z,0
2017-11-19T06:27:55.919Z,0
2017-11-19T06:29:08.906Z,0
2017-11-19T06:30:21.889Z,0
2017-11-19T06:31:34.897Z,0
2017-11-19T06:32:47.914Z,0
2017-11-19T06:34:00.974Z,0
2017-11-19T06:35:13.980Z,0
2017-11-19T06:36:26.530Z,0
2017-11-19T06:37:39.551Z,0
2017-11-19T06:38:52.591Z,0
2017-11-19T06:40:05.627Z,0
2017-11-19T06:41:18.190Z,0
2017-11-19T06:42:31.162Z,0
2017-11-19T06:43:43.731Z,0
2017-11-19T06:44:56.776Z,0
2017-11-19T06:46:09.835Z,0
2017-11-19T06:47:22.386Z,0
2017-11-19T06:48:35.402Z,0
2017-11-19T06:49:47.913Z,0
2017-11-19T06:51:00.993Z,0
2017-11-19T06:52:14.007Z,0
2017-11-19T06:53:27.025Z,0
2017-11-19T06:54:40.046Z,0
2017-11-19T06:55:52.585Z,0
2017-11-19T06:57:05.585Z,0
2017-11-19T06:58:18.552Z,0
2017-11-19T06:59:31.560Z,0
2017-11-19T07:00:44.604Z,0
2017-11-19T07:01:57.657Z,0
2017-11-19T07:03:10.662Z,0
2017-11-19T07:04:23.206Z,0
2017-11-19T07:05:36.292Z,0
2017-11-19T07:06:49.321Z,0
2017-11-19T07:08:01.868Z,0
2017-11-19T07:09:14.849Z,0
2017-11-19T07:10:27.823Z,0
2017-11-19T07:11:40.815Z,0
2017-11-19T07:12:53.855Z,0
2017-11-19T07:14:06.438Z,0
2017-11-19T07:15:19.017Z,0
2017-11-19T07:16:32.020Z,0
2017-11-19T07:17:44.982Z,0
2017-11-19T07:18:57.531Z,0
2017-11-19T07:20:10.088Z,0
2017-11-19T07:21:23.138Z,0
2017-11-19T07:22:36.142Z,0
2017-11-19T07:23:49.139Z,0
2017-11-19T07:25:02.140Z,0
2017-11-19T07:26:15.163Z,0
2017-11-19T07:27:28.140Z,0
2017-11-19T07:28:40.204Z,0
2017-11-19T07:29:53.412Z,0
2017-11-19T07:31:05.950Z,0
2017-11-19T07:32:19.131Z,0
2017-11-19T07:33:32.122Z,0
2017-11-19T07:34:45.086Z,0
2017-11-19T07:35:57.565Z,0
2017-11-19T07:37:10.521Z,0
2017-11-19T07:38:23.754Z,0
2017-11-19T07:39:36.820Z,0
2017-11-19T07:40:49.829Z,0
2017-11-19T07:42:02.841Z,0
2017-11-19T07:43:15.364Z,0
2017-11-19T07:44:28.417Z,0
2017-11-19T07:45:40.937Z,0
2017-11-19T07:46:53.453Z,0
2017-11-19T07:48:06.503Z,0
2017-11-19T07:49:18.590Z,0
2017-11-19T07:50:31.584Z,0
2017-11-19T07:51:44.643Z,0
2017-11-19T07:52:57.660Z,4
2017-11-19T07:54:10.660Z,4
2017-11-19T07:55:23.147Z,8
2017-11-19T07:56:36.114Z,8
2017-11-19T07:57:49.150Z,12
2017-11-19T07:59:02.116Z,12
2017-11-19T08:00:15.126Z,16
2017-11-19T08:01:28.160Z,20
2017-11-19T08:02:40.689Z,24
2017-11-19T08:03:52.734Z,40
2017-11-19T08:05:05.272Z,48
2017-11-19T08:06:18.429Z,68
2017-11-19T08:07:31.492Z,88
2017-11-19T08:08:43.988Z,120
2017-11-19T08:09:57.008Z,136
2017-11-19T08:11:10.210Z,144
2017-11-19T08:12:23.382Z,172
2017-11-19T08:13:35.950Z,216
2017-11-19T08:14:49.008Z,288
2017-11-19T08:16:02.041Z,356
2017-11-19T08:17:14.103Z,404
2017-11-19T08:18:27.072Z,444
2017-11-19T08:19:40.110Z,468
2017-11-19T08:20:53.118Z,504
2017-11-19T08:22:06.149Z,568
2017-11-19T08:23:19.143Z,656
2017-11-19T08:24:32.152Z,732
2017-11-19T08:25:45.167Z,812
2017-11-19T08:26:58.199Z,888
2017-11-19T08:28:10.278Z,948
2017-11-19T08:29:23.242Z,1028
2017-11-19T08:30:36.263Z,1124
2017-11-19T08:31:49.211Z,1260
2017-11-19T08:33:01.727Z,1412
2017-11-19T08:34:14.258Z,1600
2017-11-19T08:35:27.279Z,1764
2017-11-19T08:36:40.323Z,1904
2017-11-19T08:37:53.350Z,2116
2017-11-19T08:39:06.400Z,2460
2017-11-19T08:40:18.935Z,2868
2017-11-19T08:41:31.503Z,3228
2017-11-19T08:42:44.546Z,3504
2017-11-19T08:43:57.082Z,3772
2017-11-19T08:45:10.059Z,3980
2017-11-19T08:46:23.115Z,4180
2017-11-19T08:47:36.149Z,4488
2017-11-19T08:48:49.212Z,4620
2017-11-19T08:50:02.210Z,4716
2017-11-19T08:51:14.226Z,4976
2017-11-19T08:52:27.217Z,5336
2017-11-19T08:53:40.192Z,5744
2017-11-19T08:54:53.223Z,6336
2017-11-19T08:56:06.204Z,7388
2017-11-19T08:57:19.185Z,8868
2017-11-19T08:58:31.733Z,8420
2017-11-19T08:59:44.740Z,8456
2017-11-19T09:00:57.759Z,8468
2017-11-19T09:02:10.314Z,7836
2017-11-19T09:03:23.084Z,7276
2017-11-19T09:04:36.099Z,6672
2017-11-19T09:05:49.078Z,5924
2017-11-19T09:07:01.637Z,4408
2017-11-19T09:08:14.673Z,3468
2017-11-19T09:09:27.690Z,3248
2017-11-19T09:10:40.233Z,3152
2017-11-19T09:11:52.782Z,3200
2017-11-19T09:13:05.299Z,3260
2017-11-19T09:14:17.830Z,2976
2017-11-19T09:15:30.812Z,2884
2017-11-19T09:16:43.817Z,2924
2017-11-19T09:17:56.358Z,3520
2017-11-19T09:19:08.838Z,4312
2017-11-19T09:20:21.783Z,5056
2017-11-19T09:21:34.800Z,5512
2017-11-19T09:22:47.839Z,5500
2017-11-19T09:24:00.841Z,5448
2017-11-19T09:25:13.877Z,5484
2017-11-19T09:26:27.095Z,5444
2017-11-19T09:27:40.050Z,5468
2017-11-19T09:28:52.640Z,5268
2017-11-19T09:30:04.210Z,5024
2017-11-19T09:31:17.205Z,5132
2017-11-19T09:32:30.225Z,5120
2017-11-19T09:33:43.252Z,4948
2017-11-19T09:34:56.285Z,4868
2017-11-19T09:36:09.243Z,4924
2017-11-19T09:37:21.820Z,4476
2017-11-19T09:38:34.843Z,3920
2017-11-19T09:39:47.377Z,3740
2017-11-19T09:40:59.870Z,3464
2017-11-19T09:42:12.632Z,2824
2017-11-19T09:43:25.621Z,3548
2017-11-19T09:44:38.137Z,3496
2017-11-19T09:45:51.184Z,3708
2017-11-19T09:47:04.140Z,4716
2017-11-19T09:48:17.156Z,5304
2017-11-19T09:49:30.157Z,4816
2017-11-19T09:50:43.174Z,4344
2017-11-19T09:51:56.147Z,4388
2017-11-19T09:53:09.136Z,4252
2017-11-19T09:54:21.621Z,4240
2017-11-19T09:55:34.642Z,4532
2017-11-19T09:56:47.610Z,5456
2017-11-19T09:58:00.816Z,6288
2017-11-19T09:59:12.906Z,6500
2017-11-19T10:00:25.926Z,6708
2017-11-19T10:01:37.984Z,5996
2017-11-19T10:02:50.978Z,5720
2017-11-19T10:04:03.924Z,5400
2017-11-19T10:05:16.940Z,4808
2017-11-19T10:06:29.935Z,4656
2017-11-19T10:07:43.145Z,5508
2017-11-19T10:08:56.112Z,5112
2017-11-19T10:10:08.613Z,5896
2017-11-19T10:11:21.826Z,7064
2017-11-19T10:12:34.812Z,6680
2017-11-19T10:13:48.037Z,5516
2017-11-19T10:15:01.046Z,4456
2017-11-19T10:16:13.775Z,4864
2017-11-19T10:17:26.793Z,5496
2017-11-19T10:18:39.421Z,5948
2017-11-19T10:19:52.427Z,6552
2017-11-19T10:21:05.423Z,5280
2017-11-19T10:22:17.960Z,1600
2017-11-19T10:23:30.966Z,5468
2017-11-19T10:24:43.971Z,6912
2017-11-19T10:25:56.970Z,6044
2017-11-19T10:27:09.505Z,5908
2017-11-19T10:28:22.500Z,5804
2017-11-19T10:29:35.452Z,6084
2017-11-19T10:30:48.473Z,6588
2017-11-19T10:31:59.625Z,10488
2017-11-19T10:33:12.596Z,12212
2017-11-19T10:34:25.567Z,13648
2017-11-19T10:35:38.590Z,16908
2017-11-19T10:36:51.580Z,16396
2017-11-19T10:38:04.589Z,17984
2017-11-19T10:39:17.097Z,22496
2017-11-19T10:40:29.644Z,21952
2017-11-19T10:41:42.194Z,17344
2017-11-19T10:42:55.218Z,16308
2017-11-19T10:44:08.256Z,18496
2017-11-19T10:45:21.254Z,19072
2017-11-19T10:46:34.300Z,16928
2017-11-19T10:47:47.291Z,15408
2017-11-19T10:49:00.236Z,12320
2017-11-19T10:50:12.304Z,10360
2017-11-19T10:51:25.327Z,11100
2017-11-19T10:52:38.329Z,13948
2017-11-19T10:53:51.068Z,15352
2017-11-19T10:55:03.576Z,14572
2017-11-19T10:56:16.770Z,13056
2017-11-19T10:57:29.793Z,15692
2017-11-19T10:58:42.785Z,15740
2017-11-19T10:59:55.821Z,13116
2017-11-19T11:01:08.323Z,11480
2017-11-19T11:02:21.304Z,13576
2017-11-19T11:03:34.282Z,15536
2017-11-19T11:04:47.301Z,16024
2017-11-19T11:05:59.813Z,13132
2017-11-19T11:07:12.806Z,13148
2017-11-19T11:08:24.844Z,12672
2017-11-19T11:09:37.864Z,15184
2017-11-19T11:10:50.881Z,20448
2017-11-19T11:12:03.856Z,24480
2017-11-19T11:13:16.840Z,20128
2017-11-19T11:14:29.366Z,20960
2017-11-19T11:15:42.389Z,22944
2017-11-19T11:16:54.915Z,23008
2017-11-19T11:18:08.169Z,20576
2017-11-19T11:19:21.206Z,14436
2017-11-19T11:20:34.212Z,13836
2017-11-19T11:21:47.211Z,15764
2017-11-19T11:23:00.162Z,14880
2017-11-19T11:24:12.720Z,17076
2017-11-19T11:25:25.273Z,20992
2017-11-19T11:26:38.261Z,27040
2017-11-19T11:27:51.264Z,37728
2017-11-19T11:29:04.021Z,43840
2017-11-19T11:30:16.102Z,44320
2017-11-19T11:31:28.621Z,47744
2017-11-19T11:32:41.130Z,38592
2017-11-19T11:33:54.106Z,35744
2017-11-19T11:35:07.072Z,33792
2017-11-19T11:36:20.077Z,32192
2017-11-19T11:37:33.103Z,25728
2017-11-19T11:38:45.667Z,21504
2017-11-19T11:39:58.435Z,26432
2017-11-19T11:41:11.450Z,30720
2017-11-19T11:42:24.003Z,29088
2017-11-19T11:43:37.004Z,30112
2017-11-19T11:44:49.980Z,31392
2017-11-19T11:46:02.535Z,36128
2017-11-19T11:47:15.112Z,49088
2017-11-19T11:48:28.096Z,85440
2017-11-19T11:49:41.137Z,66976
2017-11-19T11:50:54.101Z,54400
2017-11-19T11:52:07.116Z,97984
2017-11-19T11:53:20.147Z,76544
2017-11-19T11:54:33.111Z,70400
2017-11-19T11:55:46.105Z,64768
2017-11-19T11:56:58.632Z,72992
2017-11-19T11:58:11.166Z,80960
2017-11-19T11:59:23.246Z,56960
2017-11-19T12:00:36.235Z,54912
2017-11-19T12:01:48.980Z,54240
2017-11-19T12:03:02.021Z,50784
2017-11-19T12:04:15.046Z,48800
2017-11-19T12:05:28.056Z,47840
2017-11-19T12:06:41.056Z,49056
2017-11-19T12:07:54.055Z,51712
2017-11-19T12:09:07.045Z,50048
2017-11-19T12:10:19.597Z,44576
2017-11-19T12:11:32.606Z,36832
2017-11-19T12:12:45.617Z,28896
2017-11-19T12:13:58.613Z,24768
2017-11-19T12:15:11.146Z,22176
2017-11-19T12:16:24.151Z,19424
2017-11-19T12:17:36.633Z,16932
2017-11-19T12:18:49.191Z,16428
2017-11-19T12:20:01.717Z,19360
2017-11-19T12:21:14.732Z,22272
2017-11-19T12:22:27.740Z,19552
2017-11-19T12:23:40.684Z,15844
2017-11-19T12:24:53.198Z,15696
2017-11-19T12:26:06.213Z,17792
2017-11-19T12:27:19.208Z,19712
2017-11-19T12:28:32.224Z,22016
2017-11-19T12:29:45.243Z,25600
2017-11-19T12:30:58.218Z,31072
2017-11-19T12:32:11.218Z,37088
2017-11-19T12:33:24.194Z,43840
2017-11-19T12:34:37.161Z,46688
2017-11-19T12:35:49.674Z,44736
2017-11-19T12:37:02.207Z,42304
2017-11-19T12:38:14.293Z,41824
2017-11-19T12:39:26.815Z,39520
2017-11-19T12:40:39.860Z,38368
2017-11-19T12:41:52.897Z,34880
2017-11-19T12:43:05.209Z,31904
2017-11-19T12:44:18.206Z,29504
2017-11-19T12:45:31.196Z,26688
2017-11-19T12:46:43.714Z,22496
2017-11-19T12:47:56.747Z,20096
2017-11-19T12:49:09.273Z,19872
2017-11-19T12:50:22.270Z,18016
2017-11-19T12:51:34.846Z,15208
2017-11-19T12:52:47.808Z,14104
2017-11-19T12:54:00.796Z,14952
2017-11-19T12:55:14.009Z,17344
2017-11-19T12:56:27.011Z,20128
2017-11-19T12:57:40.004Z,21664
2017-11-19T12:58:53.036Z,21888
2017-11-19T13:00:05.611Z,20672
2017-11-19T13:01:18.583Z,21120
2017-11-19T13:02:31.103Z,24320
2017-11-19T13:03:44.112Z,28032
2017-11-19T13:04:56.902Z,30144
2017-11-19T13:06:09.463Z,32736
2017-11-19T13:07:22.481Z,35872
2017-11-19T13:08:35.005Z,39424
2017-11-19T13:09:48.013Z,40128
2017-11-19T13:11:00.562Z,45056
2017-11-19T13:12:13.594Z,44736
2017-11-19T13:13:26.555Z,46048
2017-11-19T13:14:39.530Z,67776
2017-11-19T13:15:52.507Z,57536
2017-11-19T13:17:05.020Z,54880
2017-11-19T13:18:17.998Z,78592
2017-11-19T13:19:31.025Z,70752
2017-11-19T13:20:43.558Z,97856
2017-11-19T13:21:56.128Z,97504
2017-11-19T13:23:08.664Z,55904
2017-11-19T13:24:21.667Z,46656
2017-11-19T13:25:34.711Z,46016
2017-11-19T13:26:47.760Z,51008
2017-11-19T13:28:00.701Z,46080
2017-11-19T13:29:13.721Z,39680
2017-11-19T13:30:26.701Z,37952
2017-11-19T13:31:39.713Z,34560
2017-11-19T13:32:52.749Z,33184
2017-11-19T13:34:05.717Z,32704
2017-11-19T13:35:18.727Z,34432
2017-11-19T13:36:31.730Z,32672
2017-11-19T13:37:44.737Z,31008
2017-11-19T13:38:57.230Z,34336
2017-11-19T13:40:10.266Z,38144
2017-11-19T13:41:22.825Z,46720
2017-11-19T13:42:35.342Z,58176
2017-11-19T13:43:48.333Z,61632
2017-11-19T13:45:00.896Z,150560
2017-11-19T13:46:13.938Z,155584
2017-11-19T13:47:27.145Z,105376
2017-11-19T13:48:39.671Z,77088
2017-11-19T13:49:52.217Z,152960
2017-11-19T13:51:05.265Z,136160
2017-11-19T13:52:18.291Z,157504
2017-11-19T13:53:30.823Z,157344
2017-11-19T13:54:43.387Z,65216
2017-11-19T13:55:56.425Z,58240
2017-11-19T13:57:08.981Z,52960
2017-11-19T13:58:22.192Z,46976
2017-11-19T13:59:35.206Z,41728
2017-11-19T14:00:48.254Z,35616
2017-11-19T14:02:01.273Z,36064
2017-11-19T14:03:14.311Z,39872
2017-11-19T14:04:27.366Z,46528
2017-11-19T14:05:40.377Z,47648
2017-11-19T14:06:52.958Z,51840
2017-11-19T14:08:05.992Z,52448
2017-11-19T14:09:18.081Z,55360
2017-11-19T14:10:31.113Z,49600
2017-11-19T14:11:44.103Z,46688
2017-11-19T14:12:57.164Z,43328
2017-11-19T14:14:09.276Z,39936
2017-11-19T14:15:22.280Z,37536
2017-11-19T14:16:35.294Z,39264
2017-11-19T14:17:48.390Z,40032
2017-11-19T14:19:01.379Z,40192
2017-11-19T14:20:14.410Z,39328
2017-11-19T14:21:27.373Z,38944
2017-11-19T14:22:39.918Z,39872
2017-11-19T14:23:52.474Z,41216
2017-11-19T14:25:05.046Z,43328
2017-11-19T14:26:18.092Z,47296
2017-11-19T14:27:30.180Z,52608
2017-11-19T14:28:42.710Z,77376
2017-11-19T14:29:54.294Z,100832
2017-11-19T14:31:07.505Z,148448
2017-11-19T14:32:20.562Z,136224
2017-11-19T14:33:33.126Z,141504
2017-11-19T14:34:46.181Z,114880
2017-11-19T14:35:59.155Z,144448
2017-11-19T14:37:11.699Z,137632
2017-11-19T14:38:24.727Z,124672
2017-11-19T14:39:37.746Z,112768
2017-11-19T14:40:50.750Z,86880
2017-11-19T14:42:03.322Z,115040
2017-11-19T14:43:16.331Z,117728
2017-11-19T14:44:29.352Z,65184
2017-11-19T14:45:42.362Z,51840
2017-11-19T14:46:55.391Z,58368
2017-11-19T14:48:07.967Z,68608
2017-11-19T14:49:20.507Z,68768
2017-11-19T14:50:33.514Z,71872
2017-11-19T14:51:46.546Z,82496
2017-11-19T14:52:59.610Z,100352
2017-11-19T14:54:11.731Z,104608
2017-11-19T14:55:24.753Z,67424
2017-11-19T14:56:37.770Z,72448
2017-11-19T14:57:50.802Z,102304
2017-11-19T14:59:03.791Z,114240
2017-11-19T15:00:16.785Z,112128
2017-11-19T15:01:29.798Z,118752
2017-11-19T15:02:42.371Z,113472
2017-11-19T15:03:55.370Z,101376
2017-11-19T15:05:08.354Z,95040
2017-11-19T15:06:21.389Z,75808
2017-11-19T15:07:34.409Z,53152
2017-11-19T15:08:47.402Z,61376
2017-11-19T15:10:00.420Z,61184
2017-11-19T15:11:12.975Z,74272
2017-11-19T15:12:25.977Z,63040
2017-11-19T15:13:39.022Z,57568
2017-11-19T15:14:52.077Z,46016
2017-11-19T15:16:05.088Z,39616
2017-11-19T15:17:18.305Z,35040
2017-11-19T15:18:31.338Z,37792
2017-11-19T15:19:43.863Z,32896
2017-11-19T15:20:56.475Z,29088
2017-11-19T15:22:08.977Z,26336
2017-11-19T15:23:21.974Z,23296
2017-11-19T15:24:34.489Z,22976
2017-11-19T15:25:47.102Z,25984
2017-11-19T15:27:00.081Z,29632
2017-11-19T15:28:13.137Z,32960
2017-11-19T15:29:26.171Z,36160
2017-11-19T15:30:39.195Z,36768
2017-11-19T15:31:52.246Z,34368
2017-11-19T15:33:05.298Z,31296
2017-11-19T15:34:18.282Z,27008
2017-11-19T15:35:31.297Z,23744
2017-11-19T15:36:44.311Z,21984
2017-11-19T15:37:56.849Z,21312
2017-11-19T15:39:09.874Z,20064
2017-11-19T15:40:22.817Z,20064
2017-11-19T15:41:35.826Z,19776
2017-11-19T15:42:48.834Z,19776
2017-11-19T15:44:01.375Z,22816
2017-11-19T15:45:14.399Z,28608
2017-11-19T15:46:27.354Z,37664
2017-11-19T15:47:40.316Z,28672
2017-11-19T15:48:52.874Z,24640
2017-11-19T15:50:05.877Z,27040
2017-11-19T15:51:18.896Z,35168
2017-11-19T15:52:31.901Z,37216
2017-11-19T15:53:44.880Z,35232
2017-11-19T15:54:57.896Z,29504
2017-11-19T15:56:11.098Z,26048
2017-11-19T15:57:24.089Z,35744
2017-11-19T15:58:36.587Z,37568
2017-11-19T15:59:49.183Z,34304
2017-11-19T16:01:02.196Z,29056
2017-11-19T16:02:14.693Z,28064
2017-11-19T16:03:27.718Z,33952
2017-11-19T16:04:40.751Z,40096
2017-11-19T16:05:53.756Z,73888
2017-11-19T16:07:06.300Z,105440
2017-11-19T16:08:19.319Z,128992
2017-11-19T16:09:31.852Z,121888
2017-11-19T16:10:44.367Z,121600
2017-11-19T16:11:56.878Z,130976
2017-11-19T16:13:09.439Z,135904
2017-11-19T16:14:22.436Z,144352
2017-11-19T16:15:35.434Z,138976
2017-11-19T16:16:47.887Z,130048
2017-11-19T16:18:00.950Z,113728
2017-11-19T16:19:13.994Z,115264
2017-11-19T16:20:26.026Z,123200
2017-11-19T16:21:38.591Z,138400
2017-11-19T16:22:51.570Z,145280
2017-11-19T16:24:04.118Z,131808
2017-11-19T16:25:17.105Z,134112
2017-11-19T16:26:30.094Z,133696
2017-11-19T16:27:43.096Z,113600
2017-11-19T16:28:55.664Z,123008
2017-11-19T16:30:08.659Z,135552
2017-11-19T16:31:21.692Z,114144
2017-11-19T16:32:34.217Z,137920
2017-11-19T16:33:47.225Z,141792
2017-11-19T16:35:00.203Z,109696
2017-11-19T16:36:13.170Z,80960
2017-11-19T16:37:25.687Z,146752
2017-11-19T16:38:38.202Z,54272
2017-11-19T16:39:51.187Z,43072
2017-11-19T16:41:03.713Z,42880
2017-11-19T16:42:16.784Z,51616
2017-11-19T16:43:29.293Z,53984